Terminal Aerodrome Forecast
Issued by NWS

Home | Current Version | Previous Version | Text Only | Print | Product List | Glossary On
Versions: 1 2 3 4 5 6 7 8 9 10 11 12 13 14 15 16 17 18 19 20 21 22 23 24 25 26 27 28 29 30 31 32 33 34 35 36
000
FTUS45 KTFX 200554
TAFCTB
TAF
KCTB 200554Z 2006/2106 01009G16KT 5SM -RA OVC030
     FM201300 26009KT P6SM FEW040 SCT090
      TEMPO 2014/2015 4SM -RA BKN040
     FM202300 29012KT 5SM -SHRA SCT050 BKN090 PROB30 2023/2101
      VRB30G45KT 4SM -TSRA BKN040CB
     FM210200 30009KT P6SM SCT040 BKN100 PROB30 2102/2106 4SM -RA
      BKN040=

USA.gov is the U.S. government's official web portal to all federal, state and local government web resources and services.